Terminal Aerodrome Forecast
Issued by NWS

Home | Current Version | Previous Version | Graphics & Text | Print | Product List | Glossary On
Versions: 1 2 3 4 5 6 7 8 9 10 11 12 13 14 15
000
FTUS43 KBIS 171100
TAFMOT
TAF
KMOT 171132Z 1712/1812 33012KT P6SM OVC015
     FM180000 04006KT P6SM BKN025
     FM180300 14006KT P6SM BKN025=

USA.gov is the U.S. government's official web portal to all federal, state and local government web resources and services.